createdAt,value
2018-07-04T00:01:51.318Z,84.30
2018-07-04T00:04:31.954Z,84.80
2018-07-04T00:07:12.355Z,85.10
2018-07-04T00:09:52.647Z,85.90
2018-07-04T00:12:33.009Z,85.70
2018-07-04T00:15:13.389Z,86.30
2018-07-04T00:17:53.716Z,86.10
2018-07-04T00:20:34.149Z,86.60
2018-07-04T00:23:15.279Z,87.20
2018-07-04T00:25:55.476Z,87.10
2018-07-04T00:28:35.983Z,87.60
2018-07-04T00:31:16.337Z,88.00
2018-07-04T00:33:56.805Z,88.30
2018-07-04T00:36:37.035Z,88.60
2018-07-04T00:39:17.498Z,89.60
2018-07-04T00:41:57.777Z,89.90
2018-07-04T00:44:37.974Z,90.00
2018-07-04T00:47:18.295Z,90.00
2018-07-04T00:49:58.699Z,90.10
2018-07-04T00:52:39.154Z,90.30
2018-07-04T00:55:19.427Z,90.30
2018-07-04T00:58:00.416Z,90.60
2018-07-04T01:00:41.432Z,90.80
2018-07-04T01:03:21.930Z,90.80
2018-07-04T01:06:02.310Z,91.00
2018-07-04T01:08:43.361Z,91.10
2018-07-04T01:11:23.646Z,91.30
2018-07-04T01:14:04.649Z,91.60
2018-07-04T01:16:45.038Z,91.60
2018-07-04T01:19:25.457Z,91.80
2018-07-04T01:22:05.731Z,91.90
2018-07-04T01:24:46.063Z,91.90
2018-07-04T01:27:27.706Z,92.50
2018-07-04T01:30:07.889Z,92.50
2018-07-04T01:32:48.518Z,92.50
2018-07-04T01:35:28.918Z,92.60
2018-07-04T01:38:09.180Z,92.70
2018-07-04T01:40:50.432Z,93.00
2018-07-04T01:43:30.640Z,92.90
2018-07-04T01:46:11.667Z,93.10
2018-07-04T01:48:51.983Z,93.30
2018-07-04T01:51:32.252Z,93.40
2018-07-04T01:54:12.898Z,93.70
2018-07-04T01:56:53.229Z,93.70
2018-07-04T01:59:33.593Z,93.90
2018-07-04T02:02:13.699Z,94.00
2018-07-04T02:04:53.935Z,94.20
2018-07-04T02:07:34.501Z,94.70
2018-07-04T02:10:14.672Z,94.50
2018-07-04T02:12:54.880Z,94.60
2018-07-04T02:15:35.028Z,94.80
2018-07-04T02:18:15.211Z,94.90
2018-07-04T02:20:56.887Z,95.30
2018-07-04T02:23:37.218Z,95.30
2018-07-04T02:26:18.111Z,95.30
2018-07-04T02:28:58.313Z,95.50
2018-07-04T02:31:40.616Z,95.60
2018-07-04T02:34:20.779Z,95.70
2018-07-04T02:37:01.007Z,96.00
2018-07-04T02:39:41.286Z,96.00
2018-07-04T02:42:21.618Z,96.30
2018-07-04T02:45:02.741Z,97.10
2018-07-04T02:47:42.946Z,97.10
2018-07-04T02:50:23.296Z,97.50
2018-07-04T02:53:03.440Z,97.60
2018-07-04T02:55:43.671Z,97.70
2018-07-04T02:58:23.949Z,97.60
2018-07-04T03:01:04.185Z,97.70
2018-07-04T03:03:44.451Z,97.60
2018-07-04T03:06:25.576Z,98.00
2018-07-04T03:09:06.614Z,98.90
2018-07-04T03:11:46.749Z,98.60
2018-07-04T03:14:26.971Z,98.70
2018-07-04T03:17:07.927Z,99.10
2018-07-04T03:19:49.283Z,99.20
2018-07-04T03:22:29.478Z,99.30
2018-07-04T03:25:09.776Z,99.20
2018-07-04T03:27:49.932Z,99.30
2018-07-04T03:30:30.242Z,99.40
2018-07-04T03:33:11.098Z,99.40
2018-07-04T03:35:51.520Z,99.60
2018-07-04T03:38:31.816Z,99.70
2018-07-04T03:41:12.479Z,99.80
2018-07-04T03:43:52.854Z,99.80
2018-07-04T03:46:32.902Z,99.80
2018-07-04T03:49:13.119Z,99.90
2018-07-04T03:51:55.153Z,99.90
2018-07-04T03:54:35.365Z,99.90
2018-07-04T03:57:15.610Z,99.90
2018-07-04T03:59:56.332Z,99.90
2018-07-04T04:02:36.670Z,99.90
2018-07-04T04:05:16.963Z,99.90
2018-07-04T04:07:57.326Z,99.90
2018-07-04T04:10:37.674Z,99.90
2018-07-04T04:13:19.031Z,99.90
2018-07-04T04:15:59.204Z,99.90
2018-07-04T04:18:39.544Z,99.90
2018-07-04T04:21:20.007Z,99.90
2018-07-04T04:24:00.331Z,99.90
2018-07-04T04:26:42.881Z,99.90
2018-07-04T04:29:23.227Z,99.90
2018-07-04T04:32:03.370Z,99.90
2018-07-04T04:34:44.398Z,99.90
2018-07-04T04:40:13.455Z,99.90
2018-07-04T04:42:54.188Z,99.90
2018-07-04T04:45:34.485Z,99.90
2018-07-04T04:48:15.711Z,99.90
2018-07-04T04:50:55.789Z,99.90
2018-07-04T04:53:36.059Z,99.90
2018-07-04T04:56:16.255Z,99.90
2018-07-04T04:58:56.856Z,99.90
2018-07-04T05:01:37.312Z,99.90
2018-07-04T05:04:17.472Z,99.90
2018-07-04T05:06:57.659Z,99.90
2018-07-04T05:09:37.881Z,99.90
2018-07-04T05:12:18.142Z,99.90
2018-07-04T05:14:58.255Z,99.90
2018-07-04T05:17:38.475Z,99.90
2018-07-04T05:20:18.729Z,99.90
2018-07-04T05:22:59.021Z,99.90
2018-07-04T05:25:39.248Z,99.90
2018-07-04T05:28:19.636Z,99.90
2018-07-04T05:30:59.882Z,99.90
2018-07-04T05:33:40.246Z,99.90
2018-07-04T05:36:21.212Z,99.90
2018-07-04T05:39:02.312Z,99.90
2018-07-04T05:41:43.197Z,99.90
2018-07-04T05:44:23.431Z,99.90
2018-07-04T05:47:03.523Z,99.90
2018-07-04T05:49:43.736Z,99.90
2018-07-04T05:52:23.827Z,99.90
2018-07-04T05:55:04.149Z,99.40
2018-07-04T05:57:44.491Z,99.40
2018-07-04T06:00:24.789Z,99.50
2018-07-04T06:03:05.165Z,99.40
2018-07-04T06:05:48.273Z,99.30
2018-07-04T06:08:31.735Z,98.60
2018-07-04T06:11:12.132Z,98.10
2018-07-04T06:13:52.658Z,97.90
2018-07-04T06:16:32.932Z,96.90
2018-07-04T06:19:14.243Z,95.60
2018-07-04T06:21:55.386Z,96.10
2018-07-04T06:24:35.741Z,94.50
2018-07-04T06:27:20.012Z,94.40
2018-07-04T06:30:01.225Z,94.40
2018-07-04T06:32:41.580Z,94.10
2018-07-04T06:35:21.869Z,94.50
2018-07-04T06:37:49.728Z,93.30
2018-07-04T06:40:18.322Z,92.40
2018-07-04T06:42:46.156Z,92.30
2018-07-04T06:45:14.877Z,92.10
2018-07-04T06:47:42.718Z,91.60
2018-07-04T06:50:11.339Z,91.50
2018-07-04T06:52:39.232Z,91.50
2018-07-04T06:55:07.071Z,91.00
2018-07-04T06:57:34.935Z,90.70
2018-07-04T07:00:02.805Z,90.40
2018-07-04T07:02:30.674Z,88.50
2018-07-04T07:05:10.984Z,86.50
2018-07-04T07:07:51.648Z,86.30
2018-07-04T07:10:31.821Z,85.50
2018-07-04T07:13:12.895Z,82.40
2018-07-04T07:15:53.110Z,81.50
2018-07-04T07:18:33.312Z,81.20
2018-07-04T07:21:14.561Z,81.70
2018-07-04T07:23:54.732Z,81.70
2018-07-04T07:26:35.088Z,81.40
2018-07-04T07:29:15.202Z,81.50
2018-07-04T07:31:55.418Z,80.70
2018-07-04T07:34:35.899Z,81.00
2018-07-04T07:37:16.055Z,80.90
2018-07-04T07:39:57.094Z,78.90
2018-07-04T07:42:37.281Z,78.90
2018-07-04T07:45:17.555Z,78.30
2018-07-04T07:47:57.726Z,78.30
2018-07-04T07:50:38.086Z,77.60
2018-07-04T07:53:18.494Z,77.70
2018-07-04T07:55:58.514Z,77.60
2018-07-04T07:58:38.526Z,78.60
2018-07-04T08:01:19.799Z,78.60
2018-07-04T08:04:00.633Z,78.50
2018-07-04T08:06:40.850Z,78.50
2018-07-04T08:09:20.926Z,77.70
2018-07-04T08:12:01.213Z,76.90
2018-07-04T08:14:42.002Z,76.60
2018-07-04T08:17:22.166Z,76.80
2018-07-04T08:20:03.051Z,77.40
2018-07-04T08:22:43.381Z,77.40
2018-07-04T08:25:23.712Z,76.40
2018-07-04T08:28:03.933Z,76.70
2018-07-04T08:30:44.194Z,78.50
2018-07-04T08:33:24.476Z,77.10
2018-07-04T08:36:04.441Z,76.30
2018-07-04T08:38:44.589Z,76.40
2018-07-04T08:41:24.812Z,75.40
2018-07-04T08:44:05.167Z,75.10
2018-07-04T08:46:45.306Z,75.20
2018-07-04T08:49:26.511Z,73.20
2018-07-04T08:52:06.728Z,73.00
2018-07-04T08:54:47.087Z,73.10
2018-07-04T08:57:27.211Z,71.80
2018-07-04T09:00:07.833Z,71.60
2018-07-04T09:02:48.914Z,69.40
2018-07-04T09:05:30.544Z,70.50
2018-07-04T09:08:13.207Z,70.50
2018-07-04T09:10:54.211Z,69.40
2018-07-04T09:13:34.554Z,69.40
2018-07-04T09:16:14.794Z,70.20
2018-07-04T09:18:55.918Z,69.50
2018-07-04T09:21:36.245Z,69.50
2018-07-04T09:24:16.431Z,70.00
2018-07-04T09:26:56.622Z,69.60
2018-07-04T09:29:36.841Z,67.20
2018-07-04T09:32:17.059Z,68.60
2018-07-04T09:34:57.351Z,68.50
2018-07-04T09:37:40.501Z,67.60
2018-07-04T09:40:20.595Z,69.50
2018-07-04T09:43:01.833Z,67.10
2018-07-04T09:45:42.164Z,67.60
2018-07-04T09:48:22.159Z,67.90
2018-07-04T09:51:03.160Z,67.00
2018-07-04T09:53:43.574Z,71.00
2018-07-04T09:56:23.749Z,71.60
2018-07-04T09:59:03.964Z,70.80
2018-07-04T10:01:44.323Z,63.80
2018-07-04T10:04:24.765Z,63.80
2018-07-04T10:07:05.622Z,61.00
2018-07-04T10:09:46.037Z,61.00
2018-07-04T10:12:26.216Z,64.10
2018-07-04T10:15:06.453Z,59.20
2018-07-04T10:17:46.657Z,60.40
2018-07-04T10:20:38.807Z,57.50
2018-07-04T10:23:20.244Z,62.60
2018-07-04T10:26:00.404Z,62.60
2018-07-04T10:28:40.548Z,57.50
2018-07-04T10:31:20.805Z,54.60
2018-07-04T10:34:01.123Z,55.20
2018-07-04T10:36:42.216Z,55.90
2018-07-04T10:39:22.561Z,55.80
2018-07-04T10:42:03.120Z,53.80
2018-07-04T10:44:43.434Z,56.30
2018-07-04T10:47:23.761Z,56.30
2018-07-04T10:50:03.970Z,52.40
2018-07-04T10:52:44.354Z,49.00
2018-07-04T10:55:25.794Z,49.80
2018-07-04T10:58:06.082Z,49.80
2018-07-04T11:00:46.283Z,51.10
2018-07-04T11:03:26.604Z,48.30
2018-07-04T11:06:06.961Z,50.80
2018-07-04T11:08:47.579Z,48.10
2018-07-04T11:11:27.879Z,50.80
2018-07-04T11:14:08.283Z,51.00
2018-07-04T11:16:49.123Z,47.70
2018-07-04T11:19:29.493Z,48.80
2018-07-04T11:22:10.206Z,47.00
2018-07-04T11:24:50.639Z,46.40
2018-07-04T11:27:31.516Z,45.80
2018-07-04T11:30:11.825Z,45.80
2018-07-04T11:32:52.046Z,47.20
2018-07-04T11:35:32.958Z,47.80
2018-07-04T11:38:13.236Z,47.10
2018-07-04T11:40:53.484Z,47.60
2018-07-04T11:43:33.792Z,47.90
2018-07-04T11:46:01.662Z,49.20
2018-07-04T11:48:29.533Z,50.50
2018-07-04T11:50:57.473Z,49.20
2018-07-04T11:53:26.120Z,47.20
2018-07-04T11:55:54.544Z,47.20
2018-07-04T11:58:22.384Z,48.40
2018-07-04T12:00:50.283Z,46.60
2018-07-04T12:03:18.133Z,46.20
2018-07-04T12:05:58.645Z,48.20
2018-07-04T12:08:27.413Z,47.50
2018-07-04T12:10:55.638Z,47.50
2018-07-04T12:13:23.525Z,46.40
2018-07-04T12:15:51.355Z,47.40
2018-07-04T12:18:19.189Z,45.20
2018-07-04T12:20:47.119Z,45.50
2018-07-04T12:23:15.840Z,46.60
2018-07-04T12:25:43.710Z,46.60
2018-07-04T12:28:11.562Z,46.80
2018-07-04T12:30:39.443Z,46.70
2018-07-04T12:33:07.327Z,48.50
2018-07-04T12:35:35.185Z,48.50
2018-07-04T12:38:03.075Z,46.00
2018-07-04T12:40:31.194Z,45.50
2018-07-04T12:42:59.084Z,45.90
2018-07-04T12:45:26.914Z,46.40
2018-07-04T12:47:54.940Z,47.20
2018-07-04T12:50:25.564Z,48.70
2018-07-04T12:52:53.701Z,48.00
2018-07-04T12:55:34.469Z,49.50
2018-07-04T12:58:15.099Z,48.20
2018-07-04T13:00:55.439Z,49.30
2018-07-04T13:03:35.738Z,46.30
2018-07-04T13:06:15.922Z,45.90
2018-07-04T13:08:56.944Z,49.40
2018-07-04T13:11:37.339Z,49.40
2018-07-04T13:14:17.495Z,50.70
2018-07-04T13:16:57.688Z,47.50
2018-07-04T13:19:37.808Z,45.80
2018-07-04T13:22:18.046Z,46.00
2018-07-04T13:24:58.158Z,47.40
2018-07-04T13:27:38.632Z,47.20
2018-07-04T13:30:18.841Z,46.00
2018-07-04T13:32:59.136Z,46.60
2018-07-04T13:35:39.462Z,46.40
2018-07-04T13:38:20.351Z,47.50
2018-07-04T13:41:00.560Z,46.00
2018-07-04T13:43:40.796Z,46.90
2018-07-04T13:46:20.855Z,45.40
2018-07-04T13:49:01.097Z,46.40
2018-07-04T13:51:41.293Z,47.70
2018-07-04T13:54:21.569Z,46.70
2018-07-04T13:57:01.836Z,47.20
2018-07-04T13:59:42.860Z,47.90
2018-07-04T14:02:23.678Z,48.30
2018-07-04T14:05:03.890Z,49.20
2018-07-04T14:07:44.234Z,49.30
2018-07-04T14:10:24.512Z,52.30
2018-07-04T14:13:04.872Z,53.30
2018-07-04T14:15:45.100Z,52.00
2018-07-04T14:18:25.274Z,53.30
2018-07-04T14:21:05.710Z,49.90
2018-07-04T14:23:46.362Z,51.70
2018-07-04T14:26:26.771Z,49.90
2018-07-04T14:29:06.991Z,50.10
2018-07-04T14:31:48.047Z,49.40
2018-07-04T14:34:28.540Z,49.30
2018-07-04T14:37:09.715Z,47.40
2018-07-04T14:39:50.570Z,47.50
2018-07-04T14:42:31.688Z,47.50
2018-07-04T14:45:11.843Z,47.50
2018-07-04T14:47:52.147Z,47.70
2018-07-04T14:50:32.538Z,47.00
2018-07-04T14:53:12.885Z,47.70
2018-07-04T14:55:54.038Z,48.20
2018-07-04T14:58:34.350Z,48.30
2018-07-04T15:01:14.767Z,47.90
2018-07-04T15:03:54.970Z,49.40
2018-07-04T15:06:35.267Z,49.70
2018-07-04T15:09:15.484Z,50.10
2018-07-04T15:11:55.629Z,49.80
2018-07-04T15:14:36.661Z,51.30
2018-07-04T15:17:16.979Z,51.20
2018-07-04T15:19:58.252Z,52.40
2018-07-04T15:22:39.455Z,51.80
2018-07-04T15:25:19.702Z,51.60
2018-07-04T15:27:59.974Z,53.40
2018-07-04T15:30:40.112Z,51.40
2018-07-04T15:33:20.504Z,51.30
2018-07-04T15:36:01.611Z,52.10
2018-07-04T15:38:42.957Z,51.80
2018-07-04T15:41:23.747Z,52.60
2018-07-04T15:44:03.956Z,52.50
2018-07-04T15:46:44.149Z,53.10
2018-07-04T15:49:24.570Z,53.50
2018-07-04T15:52:04.866Z,53.00
2018-07-04T15:54:45.207Z,53.40
2018-07-04T15:57:25.566Z,52.60
2018-07-04T16:00:05.764Z,52.80
2018-07-04T16:02:46.115Z,52.60
2018-07-04T16:05:26.388Z,52.30
2018-07-04T16:08:06.571Z,51.60
2018-07-04T16:10:46.588Z,53.20
2018-07-04T16:13:26.891Z,50.20
2018-07-04T16:16:06.963Z,50.20
2018-07-04T16:18:47.294Z,50.60
2018-07-04T16:21:30.032Z,50.50
2018-07-04T16:24:10.274Z,49.30
2018-07-04T16:26:52.172Z,50.10
2018-07-04T16:29:35.314Z,51.10
2018-07-04T16:32:16.187Z,50.80
2018-07-04T16:35:04.178Z,51.20
2018-07-04T16:37:44.239Z,50.30
2018-07-04T16:40:24.814Z,50.40
2018-07-04T16:43:05.911Z,51.10
2018-07-04T16:45:46.251Z,51.00
2018-07-04T16:54:11.677Z,53.10
2018-07-04T16:56:51.977Z,53.10
2018-07-04T16:59:33.194Z,53.00
2018-07-04T17:02:13.626Z,53.00
2018-07-04T17:04:54.040Z,53.60
2018-07-04T17:07:35.134Z,52.80
2018-07-04T17:10:15.467Z,53.40
2018-07-04T17:15:58.823Z,52.60
2018-07-04T17:18:38.976Z,53.00
2018-07-04T17:21:19.114Z,52.80
2018-07-04T17:24:02.292Z,52.90
2018-07-04T17:26:42.655Z,51.50
2018-07-04T17:29:25.542Z,52.80
2018-07-04T17:32:05.828Z,52.40
2018-07-04T17:34:46.829Z,52.30
2018-07-04T17:37:26.979Z,52.20
2018-07-04T17:40:08.468Z,53.10
2018-07-04T17:42:48.827Z,52.90
2018-07-04T17:45:29.343Z,53.10
2018-07-04T17:48:09.602Z,53.90
2018-07-04T17:50:49.898Z,54.00
2018-07-04T17:53:30.950Z,54.00
2018-07-04T17:56:11.074Z,53.90
2018-07-04T17:58:51.391Z,53.60
2018-07-04T18:01:31.682Z,54.40
2018-07-04T18:04:11.947Z,54.90
2018-07-04T18:06:52.288Z,54.60
2018-07-04T18:09:32.571Z,54.60
2018-07-04T18:12:12.845Z,54.80
2018-07-04T18:14:52.979Z,53.60
2018-07-04T18:17:33.185Z,53.40
2018-07-04T18:20:13.539Z,54.50
2018-07-04T18:22:54.581Z,57.50
2018-07-04T18:25:34.875Z,57.40
2018-07-04T18:28:16.098Z,51.50
2018-07-04T18:30:56.505Z,51.50
2018-07-04T18:33:36.827Z,52.40
2018-07-04T18:36:17.404Z,52.10
2018-07-04T18:38:57.696Z,53.70
2018-07-04T18:41:38.593Z,54.40
2018-07-04T18:44:18.730Z,54.30
2018-07-04T18:46:59.589Z,56.40
2018-07-04T18:49:39.993Z,56.40
2018-07-04T18:52:20.311Z,55.10
2018-07-04T18:55:00.680Z,55.20
2018-07-04T18:57:41.947Z,55.40
2018-07-04T19:00:22.364Z,55.40
2018-07-04T19:03:02.556Z,55.70
2018-07-04T19:05:42.876Z,55.40
2018-07-04T19:08:23.483Z,55.50
2018-07-04T19:11:03.702Z,55.70
2018-07-04T19:13:44.058Z,56.20
2018-07-04T19:16:24.263Z,56.00
2018-07-04T19:19:04.530Z,56.40
2018-07-04T19:21:46.172Z,56.90
2018-07-04T19:24:26.318Z,56.90
2018-07-04T19:27:06.559Z,57.40
2018-07-04T19:29:46.766Z,58.00
2018-07-04T19:32:27.047Z,58.30
2018-07-04T19:35:08.061Z,58.80
2018-07-04T19:37:48.389Z,58.80
2018-07-04T19:40:29.329Z,59.10
2018-07-04T19:43:09.542Z,59.10
2018-07-04T19:45:49.888Z,59.30
2018-07-04T19:48:31.018Z,61.90
2018-07-04T19:51:11.166Z,61.90
2018-07-04T19:53:52.455Z,63.00
2018-07-04T19:56:32.687Z,63.90
2018-07-04T19:59:12.839Z,64.20
2018-07-04T20:01:53.079Z,64.80
2018-07-04T20:04:33.826Z,65.40
2018-07-04T20:07:14.055Z,66.10
2018-07-04T20:09:54.486Z,66.10
2018-07-04T20:12:34.792Z,65.80
2018-07-04T20:15:14.875Z,65.10
2018-07-04T20:17:55.339Z,65.00
2018-07-04T20:20:35.789Z,64.80
2018-07-04T20:23:16.948Z,64.90
2018-07-04T20:25:57.134Z,64.80
2018-07-04T20:28:38.285Z,66.10
2018-07-04T20:31:18.317Z,66.10
2018-07-04T20:33:58.441Z,65.80
2018-07-04T20:36:38.695Z,67.20
2018-07-04T20:39:19.197Z,67.30
2018-07-04T20:42:00.215Z,68.00
2018-07-04T20:44:40.650Z,68.40
2018-07-04T20:47:21.748Z,68.90
2018-07-04T20:50:01.946Z,69.40
2018-07-04T20:52:42.346Z,69.80
2018-07-04T20:55:22.672Z,69.60
2018-07-04T20:58:02.967Z,69.70
2018-07-04T21:00:43.249Z,69.50
2018-07-04T21:03:24.467Z,69.90
2018-07-04T21:06:04.664Z,70.10
2018-07-04T21:08:45.633Z,70.50
2018-07-04T21:11:25.848Z,70.40
2018-07-04T21:14:06.223Z,71.80
2018-07-04T21:16:46.367Z,71.60
2018-07-04T21:19:26.524Z,71.40
2018-07-04T21:22:06.801Z,71.00
2018-07-04T21:24:46.931Z,70.60
2018-07-04T21:27:27.208Z,69.90
2018-07-04T21:30:07.444Z,69.70
2018-07-04T21:32:47.927Z,69.70
2018-07-04T21:35:28.396Z,69.90
2018-07-04T21:38:09.455Z,69.80
2018-07-04T21:40:49.768Z,69.80
2018-07-04T21:43:30.053Z,70.00
2018-07-04T21:46:10.400Z,70.30
2018-07-04T21:48:51.374Z,70.30
2018-07-04T21:51:32.446Z,70.50
2018-07-04T21:54:12.780Z,70.50
2018-07-04T21:56:53.084Z,70.40
2018-07-04T21:59:33.184Z,70.70
2018-07-04T22:02:13.418Z,71.00
2018-07-04T22:04:53.696Z,70.70
2018-07-04T22:07:34.139Z,70.90
2018-07-04T22:10:14.610Z,70.70
2018-07-04T22:12:54.673Z,71.10
2018-07-04T22:15:34.951Z,71.70
2018-07-04T22:18:15.082Z,71.90
2018-07-04T22:20:55.275Z,71.50
2018-07-04T22:23:36.380Z,71.30
2018-07-04T22:26:16.499Z,71.20
2018-07-04T22:28:56.653Z,71.60
2018-07-04T22:31:36.721Z,71.20
2018-07-04T22:34:17.925Z,71.30
2018-07-04T22:36:58.094Z,71.20
2018-07-04T22:39:38.995Z,71.40
2018-07-04T22:42:19.137Z,72.00
2018-07-04T22:44:59.399Z,71.30
2018-07-04T22:47:39.455Z,71.50
2018-07-04T22:50:19.756Z,71.30
2018-07-04T22:53:01.611Z,71.40
2018-07-04T22:55:41.926Z,71.40
2018-07-04T22:58:22.068Z,71.80
2018-07-04T23:01:03.981Z,71.60
2018-07-04T23:03:44.454Z,71.40
2018-07-04T23:06:24.755Z,71.70
2018-07-04T23:09:07.777Z,72.10
2018-07-04T23:11:48.373Z,72.20
2018-07-04T23:14:28.580Z,71.80
2018-07-04T23:17:08.736Z,71.60
2018-07-04T23:19:49.688Z,72.00
2018-07-04T23:22:30.967Z,72.20
2018-07-04T23:25:11.392Z,72.50
2018-07-04T23:27:51.639Z,73.20
2018-07-04T23:30:31.870Z,72.40
2018-07-04T23:33:11.989Z,73.00
2018-07-04T23:35:53.067Z,73.90
2018-07-04T23:38:34.151Z,73.10
2018-07-04T23:41:14.507Z,73.80
2018-07-04T23:43:54.760Z,74.10
2018-07-04T23:46:35.183Z,74.20
2018-07-04T23:49:16.403Z,74.60
2018-07-04T23:51:56.680Z,74.30
2018-07-04T23:54:37.124Z,74.20
2018-07-04T23:57:17.490Z,74.70
2018-07-04T23:59:57.567Z,74.80
